Time;durP1;ratioP1;P1;durP2;ratioP2;P2;SDS_P1;SDS_P2;PMS_P1;PMS_P2;Temp;Humidity;BMP_temperature;BMP_pressure;BME280_temperature;BME280_humidity;BME280_pressure;Samples;Min_cycle;Max_cycle;Signal;HPM_P1;HPM_P2
2022/03/02 00:02:47;;;;;;;31.30;17.43;;;12.30;65.60;;;;;;12943817;23;20170;-85
2022/03/02 00:07:51;;;;;;;31.37;17.43;;;12.40;65.10;;;;;;12879180;23;20178;-85
2022/03/02 00:12:54;;;;;;;35.67;18.03;;;12.50;64.80;;;;;;12873424;23;20729;-85
2022/03/02 00:17:56;;;;;;;27.73;15.67;;;12.50;64.70;;;;;;12873073;23;20177;-86
2022/03/02 00:22:59;;;;;;;33.63;17.33;;;12.60;64.30;;;;;;12898130;23;20216;-86
2022/03/02 00:28:04;;;;;;;29.67;17.37;;;12.70;64.70;;;;;;12900532;23;20174;-85
2022/03/02 00:33:10;;;;;;;37.87;18.50;;;12.70;63.90;;;;;;12900112;23;20190;-86
2022/03/02 00:38:12;;;;;;;36.07;18.43;;;12.60;64.10;;;;;;12896072;23;20174;-86
2022/03/02 00:43:16;;;;;;;32.17;17.10;;;12.40;64.50;;;;;;12893356;23;20240;-85
2022/03/02 00:48:19;;;;;;;32.30;17.57;;;12.50;64.50;;;;;;12893176;23;20706;-86
2022/03/02 00:53:21;;;;;;;33.43;19.13;;;12.50;64.30;;;;;;12937355;23;20190;-86
2022/03/02 00:58:24;;;;;;;31.87;19.37;;;12.50;64.20;;;;;;12892494;23;20690;-85
2022/03/02 01:03:26;;;;;;;32.73;17.80;;;12.60;64.10;;;;;;12918213;23;20203;-85
2022/03/02 01:08:29;;;;;;;36.17;19.33;;;12.20;64.80;;;;;;12867288;23;20232;-85
2022/03/02 01:13:32;;;;;;;36.67;19.43;;;12.60;63.80;;;;;;12867777;23;20197;-86
2022/03/02 01:18:34;;;;;;;30.43;17.40;;;12.60;63.80;;;;;;12892417;23;20185;-85
2022/03/02 01:23:37;;;;;;;33.80;18.93;;;12.60;63.80;;;;;;12936823;23;20170;-86
2022/03/02 01:28:40;;;;;;;34.57;19.43;;;12.60;63.50;;;;;;12919535;23;20228;-86
2022/03/02 01:33:42;;;;;;;37.30;19.07;;;12.60;63.60;;;;;;12919080;23;20229;-86
2022/03/02 01:38:45;;;;;;;36.27;20.27;;;12.50;63.60;;;;;;12937147;23;20636;-86
2022/03/02 01:43:50;;;;;;;35.20;19.23;;;12.50;63.50;;;;;;12892621;23;20197;-86
2022/03/02 01:48:52;;;;;;;36.73;19.10;;;12.40;64.00;;;;;;12892152;23;20204;-86
2022/03/02 01:53:55;;;;;;;36.00;19.77;;;12.50;63.50;;;;;;12937129;23;20259;-86
2022/03/02 01:58:58;;;;;;;31.87;19.03;;;12.60;63.40;;;;;;12919642;23;20188;-86
2022/03/02 02:04:01;;;;;;;34.97;20.57;;;12.60;63.30;;;;;;12892129;23;20181;-86
2022/03/02 02:09:06;;;;;;;38.90;21.37;;;12.60;63.10;;;;;;12909525;23;20167;-85
2022/03/02 02:14:09;;;;;;;36.33;20.20;;;12.60;63.00;;;;;;12891880;23;20260;-85
2022/03/02 02:19:12;;;;;;;37.03;20.50;;;12.60;63.10;;;;;;12918723;23;20171;-86
2022/03/02 02:24:16;;;;;;;38.70;21.60;;;12.60;63.10;;;;;;12865548;23;20232;-86
2022/03/02 02:29:21;;;;;;;30.50;18.80;;;12.50;63.00;;;;;;12890629;23;20506;-85
2022/03/02 02:34:23;;;;;;;36.80;19.77;;;12.60;63.00;;;;;;12909855;23;20582;-86
2022/03/02 02:39:27;;;;;;;37.27;21.23;;;12.60;62.80;;;;;;12936821;23;20167;-86
2022/03/02 02:44:29;;;;;;;35.57;21.33;;;12.60;62.80;;;;;;12891433;23;20192;-86
2022/03/02 02:49:32;;;;;;;34.27;19.97;;;12.60;62.70;;;;;;12891196;23;20227;-86
2022/03/02 02:54:35;;;;;;;36.07;20.53;;;12.50;62.70;;;;;;12889843;23;20199;-86
2022/03/02 02:59:37;;;;;;;36.70;19.83;;;12.40;62.80;;;;;;12917501;23;20192;-86
2022/03/02 03:04:40;;;;;;;35.37;20.73;;;12.50;62.90;;;;;;12890535;23;20628;-86
2022/03/02 03:09:43;;;;;;;38.03;21.77;;;12.50;62.70;;;;;;12889946;23;20200;-86
2022/03/02 03:14:45;;;;;;;36.63;20.73;;;12.60;62.60;;;;;;12916647;23;20186;-86
2022/03/02 03:19:48;;;;;;;38.47;21.40;;;12.50;62.60;;;;;;12889052;23;20516;-86
2022/03/02 03:24:50;;;;;;;37.20;21.53;;;12.40;62.90;;;;;;12908602;23;20170;-85
2022/03/02 03:29:53;;;;;;;34.23;20.60;;;12.30;62.90;;;;;;12890480;23;20224;-86
2022/03/02 03:34:56;;;;;;;35.73;21.00;;;12.40;62.90;;;;;;12935718;23;20216;-86
2022/03/02 03:39:59;;;;;;;41.07;21.30;;;12.40;62.80;;;;;;12890565;23;20212;-86
2022/03/02 03:45:02;;;;;;;37.07;19.30;;;12.40;62.70;;;;;;12864281;23;20750;-86
2022/03/02 03:50:06;;;;;;;35.40;20.43;;;12.50;62.40;;;;;;12889687;23;20261;-86
2022/03/02 03:55:11;;;;;;;31.00;20.53;;;12.40;62.40;;;;;;12916403;23;20475;-86
2022/03/02 04:00:17;;;;;;;37.03;20.97;;;12.40;62.50;;;;;;12888865;23;20175;-86
2022/03/02 04:05:20;;;;;;;34.27;20.73;;;12.50;62.40;;;;;;12889127;23;20209;-86
2022/03/02 04:10:22;;;;;;;36.83;21.67;;;12.50;62.20;;;;;;12889896;23;20170;-85
2022/03/02 04:15:24;;;;;;;39.13;20.63;;;12.50;62.20;;;;;;12890726;23;20516;-86
2022/03/02 04:20:27;;;;;;;43.43;22.67;;;12.50;62.10;;;;;;12892588;23;20170;-86
2022/03/02 04:25:29;;;;;;;31.93;20.13;;;12.50;62.10;;;;;;12920378;23;20223;-86
2022/03/02 04:30:32;;;;;;;39.07;21.83;;;12.40;62.30;;;;;;12919011;23;20178;-86
2022/03/02 04:35:35;;;;;;;41.53;23.40;;;12.50;61.90;;;;;;12868061;23;20562;-85
2022/03/02 04:40:37;;;;;;;39.03;21.17;;;12.50;61.90;;;;;;12893155;23;20239;-86
2022/03/02 04:45:40;;;;;;;38.43;21.23;;;12.40;62.10;;;;;;12927460;23;20187;-86
2022/03/02 04:50:43;;;;;;;37.13;20.77;;;12.40;62.00;;;;;;12916076;23;20227;-86
2022/03/02 04:55:46;;;;;;;39.57;20.97;;;12.40;62.10;;;;;;12888396;23;20231;-86
2022/03/02 05:00:48;;;;;;;33.63;21.77;;;12.40;61.90;;;;;;12888808;23;20229;-86
2022/03/02 05:05:51;;;;;;;44.30;22.17;;;12.40;62.00;;;;;;12934371;23;20208;-86
2022/03/02 05:10:54;;;;;;;34.73;20.30;;;12.20;62.20;;;;;;12889286;23;20185;-86
2022/03/02 05:15:56;;;;;;;36.60;20.93;;;12.20;62.30;;;;;;12929736;23;20173;-86
2022/03/02 05:20:58;;;;;;;38.33;20.53;;;12.30;62.10;;;;;;12864087;23;20177;-86
2022/03/02 05:26:01;;;;;;;36.97;20.70;;;12.30;62.00;;;;;;12887740;23;20177;-86
2022/03/02 05:31:04;;;;;;;38.43;21.50;;;12.30;61.90;;;;;;12915981;23;20178;-86
2022/03/02 05:36:06;;;;;;;37.80;20.57;;;12.30;62.00;;;;;;12916115;23;20167;-86
2022/03/02 05:41:09;;;;;;;34.70;21.17;;;12.40;61.70;;;;;;12889034;23;20178;-87
2022/03/02 05:46:12;;;;;;;34.67;21.10;;;12.50;61.50;;;;;;12869943;23;1094981;-87
2022/03/02 05:51:14;;;;;;;37.50;21.17;;;12.40;61.50;;;;;;12866024;23;20190;-87
2022/03/02 05:56:17;;;;;;;35.37;20.77;;;12.50;61.30;;;;;;12918606;23;20637;-87
2022/03/02 06:01:20;;;;;;;35.70;20.73;;;12.50;61.10;;;;;;12891561;23;20181;-87
2022/03/02 06:06:23;;;;;;;37.97;21.63;;;12.60;61.10;;;;;;12909303;23;20165;-88
2022/03/02 06:11:26;;;;;;;37.97;21.83;;;12.60;61.10;;;;;;12889735;23;20191;-86
2022/03/02 06:16:28;;;;;;;38.83;21.17;;;12.50;61.20;;;;;;12915158;23;20223;-86
2022/03/02 06:21:32;;;;;;;38.73;20.67;;;12.50;61.00;;;;;;12863065;23;20228;-85
2022/03/02 06:26:35;;;;;;;36.10;20.70;;;12.60;60.80;;;;;;12887212;23;20212;-86
2022/03/02 06:31:37;;;;;;;33.00;19.50;;;12.60;60.80;;;;;;12887179;23;20255;-85
2022/03/02 06:36:40;;;;;;;34.70;20.03;;;12.60;60.80;;;;;;12890201;23;20168;-86
2022/03/02 06:41:45;;;;;;;38.07;20.67;;;12.60;60.80;;;;;;12916911;23;20205;-86
2022/03/02 06:47:09;;;;;;;34.57;20.33;;;12.50;60.90;;;;;;12889224;23;20206;-86
2022/03/02 06:52:19;;;;;;;36.53;20.13;;;12.60;60.90;;;;;;12865170;23;20197;-86
2022/03/02 06:57:28;;;;;;;37.00;22.20;;;12.50;60.90;;;;;;12865535;23;20170;-90
2022/03/02 07:02:49;;;;;;;70.00;37.10;;;12.70;60.50;;;;;;12892123;23;20599;-92
2022/03/02 07:07:52;;;;;;;63.10;36.43;;;11.60;53.10;;;;;;12934213;23;20169;-92
2022/03/02 07:12:55;;;;;;;67.20;35.83;;;11.70;53.10;;;;;;12863309;23;20198;-82
2022/03/02 07:18:07;;;;;;;77.17;42.97;;;11.50;53.00;;;;;;12873302;23;20173;-87
2022/03/02 07:23:18;;;;;;;87.70;46.20;;;11.80;53.20;;;;;;12933763;23;20169;-87
2022/03/02 07:28:22;;;;;;;86.90;45.20;;;11.70;54.10;;;;;;12908658;23;20227;-87
2022/03/02 07:33:25;;;;;;;75.07;41.90;;;11.30;55.20;;;;;;12915417;23;20684;-87
2022/03/02 07:38:28;;;;;;;84.27;46.53;;;9.50;63.40;;;;;;12886467;23;20704;-87
2022/03/02 07:43:30;;;;;;;85.83;42.77;;;10.80;59.60;;;;;;12887518;23;20169;-87
2022/03/02 07:48:34;;;;;;;69.53;39.33;;;11.30;58.70;;;;;;12891222;23;20588;-87
2022/03/02 07:53:47;;;;;;;76.80;39.90;;;11.20;58.80;;;;;;12862924;23;20244;-86
2022/03/02 07:58:51;;;;;;;71.93;38.07;;;10.80;60.00;;;;;;12866225;23;20247;-86
2022/03/02 08:03:57;;;;;;;62.60;35.23;;;10.50;60.40;;;;;;12912649;23;20177;-87
2022/03/02 08:09:06;;;;;;;69.37;37.37;;;10.40;59.20;;;;;;12866558;23;20207;-87
2022/03/02 08:14:08;;;;;;;59.87;34.70;;;10.60;61.90;;;;;;12933573;23;20186;-87
2022/03/02 08:19:11;;;;;;;66.77;36.30;;;10.70;61.00;;;;;;12914379;23;20617;-86
2022/03/02 08:24:17;;;;;;;73.60;36.40;;;10.40;62.20;;;;;;12936267;23;20174;-87
2022/03/02 08:29:20;;;;;;;56.57;31.23;;;10.30;62.60;;;;;;12867732;23;20204;-86
2022/03/02 08:34:23;;;;;;;57.33;32.87;;;10.20;63.80;;;;;;12920524;23;20259;-86
2022/03/02 08:39:27;;;;;;;57.13;33.07;;;10.10;63.80;;;;;;12908722;23;20162;-86
2022/03/02 08:44:29;;;;;;;52.27;28.83;;;10.50;63.10;;;;;;12890208;23;20196;-86
2022/03/02 08:49:32;;;;;;;52.37;29.03;;;10.10;62.00;;;;;;12891161;23;20174;-86
2022/03/02 08:54:46;;;;;;;62.23;31.37;;;10.80;62.50;;;;;;12916854;23;20186;-86
2022/03/02 08:59:54;;;;;;;48.63;29.40;;;10.80;62.90;;;;;;12891119;23;20162;-85
2022/03/02 09:05:00;;;;;;;41.27;24.53;;;11.50;61.40;;;;;;12938315;23;20647;-85
2022/03/02 09:10:04;;;;;;;44.57;24.27;;;11.90;56.90;;;;;;12893031;23;20502;-85
2022/03/02 09:15:07;;;;;;;40.97;22.77;;;11.30;57.80;;;;;;12891523;23;20750;-85
2022/03/02 09:20:11;;;;;;;44.80;23.60;;;11.30;57.90;;;;;;12937526;23;20166;-85
2022/03/02 09:25:13;;;;;;;34.07;21.07;;;11.50;58.60;;;;;;12937102;23;20173;-86
2022/03/02 09:30:16;;;;;;;37.67;21.67;;;11.20;57.60;;;;;;12918148;23;20176;-86
2022/03/02 09:35:20;;;;;;;31.50;17.87;;;11.30;58.60;;;;;;12935361;23;20244;-86
2022/03/02 09:40:29;;;;;;;25.87;16.40;;;12.00;55.40;;;;;;12866107;23;20177;-86
2022/03/02 09:45:33;;;;;;;29.50;15.87;;;11.70;55.00;;;;;;12889909;23;20237;-87
2022/03/02 09:50:39;;;;;;;29.93;16.07;;;11.70;52.70;;;;;;12916130;23;20174;-86
2022/03/02 09:55:44;;;;;;;25.37;14.40;;;12.20;52.40;;;;;;12889214;23;20258;-86
2022/03/02 10:00:47;;;;;;;28.70;15.40;;;12.20;52.60;;;;;;12889775;23;20173;-87
2022/03/02 10:05:52;;;;;;;22.43;14.27;;;12.00;53.90;;;;;;12889954;23;20582;-87
2022/03/02 10:10:58;;;;;;;23.97;14.93;;;11.70;50.70;;;;;;12889529;23;20182;-87
2022/03/02 10:16:03;;;;;;;23.27;13.17;;;11.30;46.60;;;;;;12905965;23;20186;-86
2022/03/02 10:21:06;;;;;;;21.97;12.40;;;11.70;54.60;;;;;;12933214;23;20166;-88
2022/03/02 10:26:16;;;;;;;21.33;11.77;;;12.30;54.40;;;;;;12914494;23;20617;-87
2022/03/02 10:31:40;;;;;;;23.67;12.00;;;12.60;54.30;;;;;;12930259;23;20174;-88
2022/03/02 10:36:50;;;;;;;18.70;12.53;;;12.60;54.60;;;;;;12862166;23;20259;-87
2022/03/02 10:41:59;;;;;;;26.83;15.00;;;12.30;52.30;;;;;;12863602;23;20177;-87
2022/03/02 10:47:03;;;;;;;21.70;12.23;;;12.10;52.50;;;;;;12887233;23;20822;-87
2022/03/02 10:52:09;;;;;;;21.27;12.00;;;12.40;55.10;;;;;;12887104;23;20160;-87
2022/03/02 10:57:13;;;;;;;22.03;14.03;;;12.10;55.20;;;;;;12915046;23;20212;-87
2022/03/02 11:02:20;;;;;;;23.53;14.67;;;12.30;50.40;;;;;;12886468;23;20239;-87
2022/03/02 11:07:25;;;;;;;26.67;13.87;;;11.90;50.80;;;;;;12906739;23;20244;-86
2022/03/02 11:12:30;;;;;;;18.73;11.07;;;11.90;52.60;;;;;;12916022;23;20357;-87
2022/03/02 11:17:32;;;;;;;22.23;13.87;;;12.00;56.30;;;;;;12892106;23;20236;-86
2022/03/02 11:22:40;;;;;;;19.83;12.00;;;11.60;54.20;;;;;;12918567;23;20636;-87
2022/03/02 11:27:42;;;;;;;14.57;9.80;;;12.00;56.00;;;;;;12891512;23;20169;-87
2022/03/02 11:32:47;;;;;;;27.30;14.70;;;11.70;56.90;;;;;;12891728;23;20185;-87
2022/03/02 11:37:58;;;;;;;17.33;11.70;;;10.60;50.90;;;;;;12905229;23;20170;-87
2022/03/02 11:43:25;;;;;;;28.80;16.33;;;10.40;54.90;;;;;;12898407;23;20612;-87
2022/03/02 11:48:31;;;;;;;24.63;13.27;;;10.90;51.20;;;;;;12871045;23;20713;-87
2022/03/02 11:53:41;;;;;;;19.60;13.07;;;11.00;56.50;;;;;;12892098;23;20196;-87
2022/03/02 11:59:03;;;;;;;26.63;13.60;;;7.70;57.90;;;;;;12890816;23;20267;-87
2022/03/02 12:04:18;;;;;;;25.07;14.90;;;8.90;61.80;;;;;;12891159;23;20230;-87
2022/03/02 12:09:28;;;;;;;20.53;11.43;;;9.40;56.20;;;;;;12937650;23;20196;-87
2022/03/02 12:14:41;;;;;;;20.50;9.97;;;9.30;61.60;;;;;;12936343;23;20215;-87
2022/03/02 12:19:46;;;;;;;20.20;12.43;;;9.40;62.30;;;;;;12920587;23;20519;-87
2022/03/02 12:24:50;;;;;;;25.07;15.10;;;10.90;54.60;;;;;;12891811;23;20564;-87
2022/03/02 12:29:56;;;;;;;28.53;16.33;;;11.20;52.50;;;;;;12895086;23;20543;-87
2022/03/02 12:35:00;;;;;;;21.13;14.13;;;10.00;50.60;;;;;;12918671;23;20219;-87
2022/03/02 12:40:09;;;;;;;29.13;16.90;;;10.20;53.90;;;;;;12892194;23;20494;-87
2022/03/02 12:45:11;;;;;;;26.93;17.50;;;8.60;51.40;;;;;;12933551;23;20222;-87
2022/03/02 12:50:16;;;;;;;17.63;9.30;;;8.20;52.60;;;;;;12936202;23;20170;-87
2022/03/02 12:55:19;;;;;;;23.03;13.63;;;8.00;69.30;;;;;;12892297;23;20260;-87
2022/03/02 13:00:23;;;;;;;30.97;17.50;;;8.10;57.60;;;;;;12867697;23;20228;-87
2022/03/02 13:05:36;;;;;;;28.23;18.30;;;7.30;55.80;;;;;;12892605;23;20182;-87
2022/03/02 13:10:44;;;;;;;28.77;18.43;;;7.00;55.40;;;;;;12868945;23;20178;-87
2022/03/02 13:15:49;;;;;;;22.93;12.97;;;6.60;57.10;;;;;;12918389;23;20190;-87
2022/03/02 13:21:00;;;;;;;15.50;8.90;;;7.70;70.00;;;;;;12917531;23;20192;-87
2022/03/02 13:26:03;;;;;;;26.37;15.77;;;8.40;68.30;;;;;;12890410;23;20517;-86
2022/03/02 13:31:18;;;;;;;16.80;8.37;;;9.00;56.10;;;;;;12889492;23;20727;-94
2022/03/02 13:36:45;;;;;;;26.33;15.77;;;7.20;78.20;;;;;;12910435;23;20186;-87
2022/03/02 13:42:04;;;;;;;24.37;16.57;;;8.90;52.60;;;;;;12890195;23;20172;-87
2022/03/02 13:47:11;;;;;;;19.60;12.73;;;8.80;52.20;;;;;;12865593;23;20251;-87
2022/03/02 13:52:19;;;;;;;16.77;11.37;;;9.40;62.30;;;;;;12909128;23;20532;-87
2022/03/02 13:57:24;;;;;;;15.57;10.57;;;10.20;60.40;;;;;;12934855;23;20498;-87
2022/03/02 14:02:37;;;;;;;18.53;11.57;;;11.50;57.70;;;;;;12864759;23;20173;-87
2022/03/02 14:07:40;;;;;;;28.40;17.60;;;11.90;61.10;;;;;;12887322;23;20561;-88
2022/03/02 14:12:52;;;;;;;24.97;12.90;;;10.30;49.70;;;;;;12887740;23;20200;-88
2022/03/02 14:17:55;;;;;;;22.77;14.23;;;10.20;57.30;;;;;;12924996;23;20692;-88
2022/03/02 14:23:08;;;;;;;22.40;12.93;;;9.90;55.90;;;;;;12916656;23;20165;-88
2022/03/02 14:28:14;;;;;;;21.60;11.47;;;10.20;56.70;;;;;;12933035;23;20602;-88
2022/03/02 14:33:18;;;;;;;20.37;11.53;;;9.70;57.20;;;;;;12862978;23;20609;-88
2022/03/02 14:38:20;;;;;;;25.37;16.00;;;10.30;58.80;;;;;;12886783;23;20230;-88
2022/03/02 14:43:24;;;;;;;15.30;9.70;;;10.40;52.30;;;;;;12885568;23;20226;-89
2022/03/02 14:48:29;;;;;;;20.77;12.80;;;10.90;58.60;;;;;;12887004;23;20214;-88
2022/03/02 14:53:40;;;;;;;23.10;14.80;;;10.30;54.00;;;;;;12887131;23;20189;-89
2022/03/02 14:58:48;;;;;;;24.73;16.73;;;10.70;50.30;;;;;;12887192;23;20241;-89
2022/03/02 15:03:54;;;;;;;19.30;12.23;;;8.40;51.70;;;;;;12863276;23;20527;-89
2022/03/02 15:09:13;;;;;;;27.23;16.80;;;10.20;55.30;;;;;;12903046;23;20496;-89
2022/03/02 15:19:51;;;;;;;19.50;12.67;;;10.90;70.50;;;;;;12885710;23;20239;-88
2022/03/02 15:24:56;;;;;;;21.60;14.73;;;11.90;55.00;;;;;;12932405;23;20174;-88
2022/03/02 15:30:15;;;;;;;22.80;14.53;;;10.70;53.60;;;;;;12887525;23;20235;-88
2022/03/02 15:35:22;;;;;;;17.53;11.10;;;10.40;53.60;;;;;;12887627;23;20255;-88
2022/03/02 15:40:32;;;;;;;20.13;14.10;;;9.40;59.00;;;;;;12906388;23;20255;-87
2022/03/02 15:45:36;;;;;;;19.47;11.93;;;9.60;58.70;;;;;;12863722;23;20548;-87
2022/03/02 15:50:42;;;;;;;24.90;13.33;;;9.40;60.80;;;;;;12932505;23;20239;-87
2022/03/02 15:55:47;;;;;;;27.40;15.63;;;8.60;62.40;;;;;;12933112;23;20192;-88
2022/03/02 16:00:51;;;;;;;49.93;24.00;;;7.90;59.80;;;;;;12887778;23;20560;-87
2022/03/02 16:06:09;;;;;;;53.63;22.97;;;5.40;60.70;;;;;;12861531;23;20174;-87
2022/03/02 16:11:34;;;;;;;52.17;24.50;;;4.10;67.70;;;;;;12887770;23;20178;-87
2022/03/02 16:16:39;;;;;;;54.63;27.80;;;3.40;71.80;;;;;;12887779;23;20198;-87
2022/03/02 16:21:48;;;;;;;47.87;24.13;;;3.20;73.10;;;;;;12863090;23;20170;-86
2022/03/02 16:26:50;;;;;;;47.53;24.80;;;2.70;72.70;;;;;;12887791;23;20565;-87
2022/03/02 16:31:53;;;;;;;62.00;25.80;;;2.50;72.40;;;;;;12886464;23;20232;-87
2022/03/02 16:36:55;;;;;;;59.70;25.13;;;2.20;76.00;;;;;;12887816;23;20190;-86
2022/03/02 16:41:59;;;;;;;64.27;24.40;;;1.80;79.70;;;;;;12886471;23;20223;-87
2022/03/02 16:47:03;;;;;;;62.03;23.67;;;1.50;80.50;;;;;;12863733;23;20264;-87
2022/03/02 16:52:06;;;;;;;55.07;23.77;;;1.40;82.20;;;;;;12914572;23;20219;-87
2022/03/02 16:57:08;;;;;;;59.97;22.93;;;1.30;84.60;;;;;;12914311;23;20301;-86
2022/03/02 17:02:11;;;;;;;44.27;22.00;;;0.90;88.20;;;;;;12914547;23;20178;-86
2022/03/02 17:07:14;;;;;;;17.97;10.73;;;0.60;90.10;;;;;;12898928;23;20177;-87
2022/03/02 17:12:16;;;;;;;14.83;10.00;;;4.30;99.90;;;;;;12919751;23;20185;-87
2022/03/02 17:17:19;;;;;;;18.50;10.50;;;7.10;99.90;;;;;;12902170;23;20573;-86
2022/03/02 17:22:25;;;;;;;18.57;10.33;;;8.70;99.50;;;;;;12891986;23;20224;-87
2022/03/02 17:27:28;;;;;;;16.50;9.97;;;9.80;92.30;;;;;;12907068;23;20204;-86
2022/03/02 17:32:33;;;;;;;15.77;8.27;;;10.60;86.50;;;;;;12916005;23;20489;-87
2022/03/02 17:37:36;;;;;;;18.43;9.23;;;11.20;81.20;;;;;;12937910;23;20200;-91
2022/03/02 17:42:39;;;;;;;40.97;17.83;;;11.50;77.50;;;;;;12912325;23;20163;-87
2022/03/02 17:47:42;;;;;;;55.50;19.37;;;11.80;68.30;;;;;;12905827;23;20208;-87
2022/03/02 17:52:44;;;;;;;34.57;16.50;;;10.60;67.80;;;;;;12919831;23;20509;-87
2022/03/02 17:57:50;;;;;;;33.60;17.57;;;10.40;69.50;;;;;;12894817;23;20196;-86
2022/03/02 18:02:53;;;;;;;42.77;15.90;;;9.70;69.20;;;;;;12886461;23;20182;-85
2022/03/02 18:07:55;;;;;;;34.50;17.43;;;9.30;72.00;;;;;;12885111;23;20423;-86
2022/03/02 18:12:58;;;;;;;33.40;15.50;;;8.70;72.40;;;;;;12912644;23;20171;-85
2022/03/02 18:18:01;;;;;;;27.07;13.63;;;8.80;74.40;;;;;;12889951;23;20572;-87
2022/03/02 18:23:05;;;;;;;31.67;15.37;;;8.60;75.10;;;;;;12889595;23;20190;-87
2022/03/02 18:28:08;;;;;;;34.33;15.90;;;8.40;75.10;;;;;;12890195;23;20497;-87
2022/03/02 18:33:13;;;;;;;21.43;12.53;;;8.20;75.80;;;;;;12913759;23;20247;-86
2022/03/02 18:38:17;;;;;;;28.07;14.50;;;8.30;77.30;;;;;;12889888;23;20199;-86
2022/03/02 18:43:19;;;;;;;31.27;16.73;;;8.80;75.70;;;;;;12916199;23;20172;-86
2022/03/02 18:48:23;;;;;;;47.07;21.30;;;8.80;75.10;;;;;;12924635;23;20173;-86
2022/03/02 18:53:26;;;;;;;40.87;20.30;;;8.60;74.10;;;;;;12915745;23;20167;-86
2022/03/02 18:58:29;;;;;;;43.87;21.43;;;8.60;75.20;;;;;;12889140;23;20190;-86
2022/03/02 19:03:33;;;;;;;50.90;24.53;;;8.40;75.50;;;;;;12914715;23;20199;-86
2022/03/02 19:08:36;;;;;;;34.20;15.90;;;8.80;75.50;;;;;;12916480;23;20173;-85
2022/03/02 19:13:38;;;;;;;59.23;27.60;;;8.50;76.60;;;;;;12890207;23;20168;-86
2022/03/02 19:18:42;;;;;;;130.60;59.57;;;8.30;76.40;;;;;;12916764;23;20496;-86
2022/03/02 19:23:51;;;;;;;130.90;57.77;;;-1.00;98.50;;;;;;12934164;23;20166;-85
2022/03/02 19:28:54;;;;;;;144.57;59.40;;;;;;;;;;12890138;23;20218;-85
2022/03/02 19:33:57;;;;;;;47.23;21.43;;;-2.00;99.90;;;;;;12889478;23;20209;-85
2022/03/02 19:44:20;;;;;;;28.73;15.77;;;2.60;99.90;;;;;;12934193;23;20198;-85
2022/03/02 19:49:30;;;;;;;60.47;29.43;;;4.90;99.90;;;;;;12894530;23;20193;-85
2022/03/02 19:54:32;;;;;;;58.03;28.37;;;5.90;99.90;;;;;;12892244;23;20198;-85
2022/03/02 19:59:36;;;;;;;51.63;26.10;;;6.60;99.90;;;;;;12920180;23;20171;-85
2022/03/02 20:04:39;;;;;;;51.60;26.30;;;6.70;99.90;;;;;;12892184;23;20684;-85
2022/03/02 20:09:41;;;;;;;32.37;16.87;;;7.30;99.90;;;;;;12867939;23;20634;-86
2022/03/02 20:14:44;;;;;;;87.03;38.20;;;7.90;99.90;;;;;;12893516;23;20221;-86
2022/03/02 20:19:46;;;;;;;65.60;30.03;;;7.80;98.60;;;;;;12892400;23;20228;-85
2022/03/02 20:24:49;;;;;;;58.30;31.43;;;8.30;97.10;;;;;;12920123;23;20170;-86
2022/03/02 20:29:53;;;;;;;68.60;32.87;;;8.20;95.80;;;;;;12919754;23;20497;-86
2022/03/02 20:34:57;;;;;;;37.03;20.40;;;8.20;94.50;;;;;;12867337;23;20249;-86
2022/03/02 20:40:02;;;;;;;51.77;26.07;;;8.40;94.70;;;;;;12867753;23;20175;-85
2022/03/02 20:45:05;;;;;;;60.17;29.80;;;8.50;93.30;;;;;;12917969;23;20231;-86
2022/03/02 20:50:08;;;;;;;98.70;47.20;;;8.50;92.40;;;;;;12891312;23;20235;-87
2022/03/02 20:55:11;;;;;;;61.97;29.10;;;7.60;90.80;;;;;;12892440;23;20202;-87
2022/03/02 21:00:14;;;;;;;37.60;20.13;;;7.60;95.00;;;;;;12868349;23;20256;-87
2022/03/02 21:05:17;;;;;;;81.20;37.57;;;8.20;93.50;;;;;;12866961;23;20232;-86
2022/03/02 21:10:19;;;;;;;61.60;30.70;;;8.50;91.20;;;;;;12909976;23;20163;-86
2022/03/02 21:15:22;;;;;;;79.40;36.57;;;8.80;90.50;;;;;;12919419;23;20221;-86
2022/03/02 21:20:25;;;;;;;65.67;32.57;;;8.30;89.40;;;;;;12892646;23;20198;-85
2022/03/02 21:25:27;;;;;;;90.33;43.83;;;8.00;91.00;;;;;;12892078;23;20517;-85
2022/03/02 21:30:30;;;;;;;80.27;37.80;;;7.40;90.40;;;;;;12919064;23;20166;-85
2022/03/02 21:35:36;;;;;;;51.53;28.07;;;7.20;92.80;;;;;;12918762;23;20191;-85
2022/03/02 21:40:38;;;;;;;59.13;30.27;;;7.90;92.20;;;;;;12867258;23;20168;-85
2022/03/02 21:45:41;;;;;;;47.73;25.33;;;8.20;90.70;;;;;;12929320;23;20195;-84
2022/03/02 21:50:43;;;;;;;56.07;29.10;;;8.50;90.20;;;;;;12917180;23;20175;-85
2022/03/02 21:55:46;;;;;;;68.87;33.13;;;8.60;89.00;;;;;;12936978;23;20191;-85
2022/03/02 22:00:48;;;;;;;81.57;37.93;;;8.40;86.90;;;;;;12865412;23;20230;-85
2022/03/02 22:05:51;;;;;;;76.73;36.03;;;8.20;87.60;;;;;;12934457;23;20176;-85
2022/03/02 22:10:54;;;;;;;97.73;47.00;;;8.40;88.40;;;;;;12890551;23;20181;-86
2022/03/02 22:15:56;;;;;;;62.93;31.37;;;7.80;85.90;;;;;;12889615;23;20517;-85
2022/03/02 22:21:02;;;;;;;98.27;44.23;;;7.50;90.60;;;;;;12909276;23;20890;-85
2022/03/02 22:26:05;;;;;;;82.10;38.60;;;7.40;89.30;;;;;;12931597;22;20195;-86
2022/03/02 22:31:07;;;;;;;91.90;39.73;;;7.40;90.90;;;;;;12890378;23;20209;-85
2022/03/02 22:36:10;;;;;;;77.70;36.80;;;7.70;90.30;;;;;;12891396;23;20204;-85
2022/03/02 22:41:13;;;;;;;57.30;30.17;;;7.80;89.50;;;;;;12894633;23;20167;-86
2022/03/02 22:46:15;;;;;;;60.10;29.53;;;7.70;90.50;;;;;;12897789;23;20203;-86
2022/03/02 22:51:18;;;;;;;56.37;29.23;;;8.50;87.90;;;;;;12920284;23;20170;-86
2022/03/02 22:56:21;;;;;;;68.27;33.80;;;8.70;85.40;;;;;;12889614;23;20191;-86
2022/03/02 23:02:07;;;;;;;59.07;29.90;;;8.40;84.80;;;;;;12890243;23;20638;-86
2022/03/02 23:17:38;;;;;;;45.97;27.00;;;9.10;81.90;;;;;;12918676;23;20190;-86
2022/03/02 23:22:41;;;;;;;53.87;28.67;;;9.40;82.50;;;;;;12939245;23;20620;-85
2022/03/02 23:27:44;;;;;;;72.30;37.93;;;9.40;80.40;;;;;;12870479;23;20180;-85
2022/03/02 23:32:46;;;;;;;57.70;27.83;;;9.30;80.60;;;;;;12934332;23;20203;-85
2022/03/02 23:37:49;;;;;;;48.83;25.20;;;9.70;80.60;;;;;;12893486;23;20191;-85
2022/03/02 23:42:52;;;;;;;62.20;33.20;;;10.30;78.20;;;;;;12921640;23;20171;-85
2022/03/02 23:47:54;;;;;;;68.17;33.13;;;10.10;76.20;;;;;;12920710;23;20246;-85
2022/03/02 23:52:57;;;;;;;58.70;30.63;;;9.70;76.30;;;;;;12921023;23;20218;-86
2022/03/02 23:57:59;;;;;;;62.03;32.17;;;9.60;78.30;;;;;;12921419;23;20191;-86
